X  Lukk Metar værinformasjon om luftfart     EDDK Cologne Bonn Airport
Temperatur
23°C Temperatur
14°C Duggpunkt
57% Luftfuktighet



Vind
4 M/S
8 MPT
13 KM/T
7 KNP



320°
NV
Nåværende forhold

Klart Klart
Trykk 1018.96 (hPa) - 30.09 (inHg)
Sikt 6 (mil) - 9.7 (km)
Flyplass
Flyplass-kode EDDK

Plassering: Cologne Bonn Airport
Avstand: 56 (km)

Metar:
EDDK 231620Z AUTO 32007KT CAVOK 23/14 Q1019 NOSIG

Tid: 2024-06-23 18:20 CEST